Time;durP1;ratioP1;P1;durP2;ratioP2;P2;SDS_P1;SDS_P2;PMS_P1;PMS_P2;Temp;Humidity;BMP_temperature;BMP_pressure;BME280_temperature;BME280_humidity;BME280_pressure;Samples;Min_cycle;Max_cycle;Signal;HPM_P1;HPM_P2
2022/08/12 00:43:35;;;;;;;2.75;1.85;;;20.10;54.90;;;19.46;41.98;97511.09;5092628;28;20894;-77
2022/08/12 00:48:48;;;;;;;5.85;2.40;;;20.10;55.10;;;19.45;41.96;97513.00;5093221;28;20855;-76
2022/08/12 00:51:14;;;;;;;3.28;2.10;;;20.10;55.10;;;19.46;41.81;97505.72;5092682;28;20409;-76
2022/08/12 00:53:41;;;;;;;3.95;2.30;;;20.00;55.10;;;19.41;42.17;97503.16;5092189;28;20390;-76
2022/08/12 00:56:07;;;;;;;3.00;2.10;;;20.00;55.30;;;19.36;42.18;97506.75;5093406;28;20405;-77
2022/08/12 00:58:35;;;;;;;2.97;1.87;;;20.00;55.40;;;19.32;42.17;97503.09;5094385;28;20508;-77
2022/08/12 01:01:06;;;;;;;6.75;2.10;;;19.90;55.30;;;19.30;42.14;97500.72;5092651;28;20398;-77
2022/08/12 01:11:53;;;;;;;4.32;2.08;;;19.90;55.50;;;19.26;42.71;97505.09;5092318;28;20528;-77
2022/08/12 01:14:23;;;;;;;4.95;2.45;;;19.90;55.80;;;19.29;42.61;97507.19;5091711;28;20402;-74
2022/08/12 01:16:51;;;;;;;5.20;2.10;;;19.80;55.80;;;19.20;42.76;97516.25;5092086;22;20419;-73
2022/08/12 01:19:20;;;;;;;4.47;2.47;;;19.90;55.90;;;19.20;42.94;97509.00;5071867;28;20400;-73
2022/08/12 01:22:15;;;;;;;4.03;2.50;;;19.80;56.00;;;19.21;42.85;97504.41;5071777;28;20480;-73
2022/08/12 01:25:01;;;;;;;3.13;2.20;;;19.80;56.20;;;19.18;42.83;97508.50;5071158;28;20765;-73
2022/08/12 01:27:32;;;;;;;3.60;2.05;;;19.80;56.20;;;19.11;43.17;97502.75;5051713;28;20419;-73
2022/08/12 01:30:01;;;;;;;3.20;2.10;;;19.70;56.40;;;19.10;43.21;97501.16;5051675;28;20882;-73
2022/08/12 01:32:29;;;;;;;3.08;2.08;;;19.70;56.40;;;19.09;43.38;97496.13;5051535;28;20398;-73
2022/08/12 01:35:04;;;;;;;3.95;2.17;;;19.70;56.60;;;19.05;43.53;97492.44;5051111;28;20459;-73
2022/08/12 01:37:44;;;;;;;5.65;2.00;;;19.70;57.00;;;19.00;43.66;97498.72;5051346;28;20918;-73
2022/08/12 01:40:12;;;;;;;3.20;2.20;;;19.60;56.90;;;19.01;43.67;97492.28;5051675;28;20854;-73
2022/08/12 01:42:46;;;;;;;4.95;2.70;;;19.70;57.10;;;19.01;43.86;97492.28;5050334;28;20401;-73
2022/08/12 01:45:14;;;;;;;4.57;2.20;;;19.60;57.30;;;18.94;44.03;97483.84;5051329;28;20402;-73
2022/08/12 01:48:00;;;;;;;2.70;2.03;;;19.60;57.30;;;18.90;44.43;97490.91;5051423;28;20401;-73
2022/08/12 01:50:43;;;;;;;5.57;2.70;;;19.50;57.60;;;18.88;44.69;97496.56;5051299;28;20759;-73
2022/08/12 01:53:13;;;;;;;5.32;2.28;;;19.50;57.80;;;18.84;44.72;97490.22;5050864;28;20436;-73
2022/08/12 01:55:45;;;;;;;2.80;1.95;;;19.50;57.90;;;18.83;45.36;97493.19;5051099;28;20425;-73
2022/08/12 01:58:25;;;;;;;5.23;2.60;;;19.50;58.30;;;18.82;45.04;97484.34;5051293;28;20408;-73
2022/08/12 02:00:59;;;;;;;4.53;2.43;;;19.50;58.30;;;18.79;45.24;97481.50;5051111;28;20474;-73
2022/08/12 02:12:48;;;;;;;3.50;2.10;;;19.40;58.50;;;18.61;45.67;97477.03;5051070;28;20409;-73
2022/08/12 02:15:21;;;;;;;2.45;1.83;;;19.30;58.70;;;18.57;45.85;97484.13;5050686;28;20400;-73
2022/08/12 02:18:18;;;;;;;6.88;2.63;;;19.30;59.00;;;18.58;46.27;97475.75;5050898;28;20400;-73
2022/08/12 02:20:56;;;;;;;2.78;2.20;;;19.20;59.30;;;18.42;46.40;97488.63;5050726;28;20401;-73
2022/08/12 02:23:26;;;;;;;7.70;2.58;;;19.10;59.50;;;18.38;46.65;97482.31;5050247;28;21018;-73
2022/08/12 02:25:58;;;;;;;3.60;2.33;;;19.00;59.70;;;18.33;46.65;97486.97;5050533;28;20414;-73
2022/08/12 02:28:26;;;;;;;4.25;2.50;;;18.90;59.90;;;18.27;46.92;97485.50;5050661;28;20390;-73
2022/08/12 02:30:53;;;;;;;4.28;2.45;;;18.90;60.20;;;18.21;47.31;97476.75;5050644;28;20405;-73
2022/08/12 02:33:21;;;;;;;3.88;1.98;;;18.80;60.40;;;18.14;47.56;97468.31;5050377;28;20425;-73
2022/08/12 02:35:49;;;;;;;4.88;2.50;;;18.80;60.60;;;18.17;47.90;97470.41;5050251;28;20397;-73
2022/08/12 02:38:16;;;;;;;2.75;2.00;;;18.80;61.00;;;18.06;47.86;97471.66;5050482;28;20412;-73
2022/08/12 02:40:47;;;;;;;3.40;2.15;;;18.80;61.20;;;18.03;47.80;97477.63;5050561;28;21020;-73
2022/08/12 02:43:26;;;;;;;4.28;2.00;;;18.70;61.20;;;18.03;48.25;97475.75;5050108;28;20389;-73
2022/08/12 02:46:00;;;;;;;3.50;2.15;;;18.70;61.20;;;18.03;48.07;97473.06;5050239;28;20492;-73
2022/08/12 02:48:32;;;;;;;4.80;2.20;;;18.70;61.40;;;18.02;48.25;97476.84;5050365;28;20422;-73
2022/08/12 02:51:08;;;;;;;3.00;1.80;;;18.70;61.40;;;17.94;48.45;97466.81;5050372;28;20409;-73
2022/08/12 02:53:36;;;;;;;5.20;2.33;;;18.60;61.70;;;17.94;48.44;97468.69;5049611;28;20400;-73
2022/08/12 02:56:04;;;;;;;3.63;2.25;;;18.50;61.90;;;17.87;48.95;97473.66;5050204;28;20924;-73
2022/08/12 02:58:32;;;;;;;3.20;2.17;;;18.50;62.20;;;17.85;49.02;97471.25;5050364;28;20397;-73
2022/08/12 03:01:03;;;;;;;6.35;2.35;;;18.50;62.50;;;17.85;49.02;97467.78;5032369;28;20413;-73
2022/08/12 03:03:32;;;;;;;3.70;2.28;;;18.50;62.50;;;17.86;49.37;97477.41;5049731;28;20399;-73
2022/08/12 03:06:02;;;;;;;3.95;2.20;;;18.50;62.70;;;17.81;49.50;97470.28;5050027;28;20421;-73
2022/08/12 03:08:42;;;;;;;2.13;1.83;;;18.50;62.90;;;17.79;49.52;97462.53;5050185;28;20398;-73
2022/08/12 03:11:15;;;;;;;4.85;2.47;;;18.50;63.00;;;17.76;49.56;97471.13;5050371;28;20397;-73
2022/08/12 03:13:46;;;;;;;3.78;2.00;;;18.40;62.90;;;17.76;49.70;97467.66;5049600;28;20969;-73
2022/08/12 03:16:13;;;;;;;4.80;2.20;;;18.50;63.20;;;17.81;49.65;97470.28;5049995;28;20530;-73
2022/08/12 03:18:44;;;;;;;4.40;2.08;;;18.50;63.90;;;17.74;49.75;97467.19;5050090;28;20472;-73
2022/08/12 03:21:12;;;;;;;3.65;2.42;;;18.50;63.20;;;17.76;49.76;97471.13;5050209;28;20480;-73
2022/08/12 03:23:40;;;;;;;3.88;2.35;;;18.50;63.40;;;17.77;49.78;97475.41;5049567;28;20398;-73
2022/08/12 03:26:07;;;;;;;3.95;2.30;;;18.40;63.40;;;17.67;49.86;97466.75;5049861;28;20420;-73
2022/08/12 03:28:50;;;;;;;3.23;2.30;;;18.40;63.50;;;17.65;50.15;97468.94;5049982;28;20409;-73
2022/08/12 03:31:19;;;;;;;4.78;2.60;;;18.30;63.60;;;17.66;50.05;97474.00;5050041;28;20413;-73
2022/08/12 03:33:48;;;;;;;4.22;2.38;;;18.30;63.80;;;17.59;50.38;97473.53;5049451;28;20741;-73
2022/08/12 03:36:19;;;;;;;3.08;2.00;;;18.30;64.00;;;17.56;50.46;97478.69;5049970;28;20763;-73
2022/08/12 03:41:55;;;;;;;4.85;2.55;;;18.30;64.00;;;17.57;50.17;97470.38;5015934;28;20417;-73
2022/08/12 04:01:06;;;;;;;4.03;2.22;;;18.10;64.50;;;17.28;50.96;97473.28;5049694;28;20440;-73
2022/08/12 04:03:53;;;;;;;3.60;2.40;;;18.00;64.80;;;17.24;51.21;97468.78;5049170;28;20412;-73
2022/08/12 04:06:21;;;;;;;2.65;2.20;;;18.00;64.80;;;17.19;51.22;97471.53;5050587;28;20413;-73
2022/08/12 04:08:49;;;;;;;4.35;2.20;;;18.00;64.80;;;17.20;51.12;97481.97;5053276;28;20440;-73
2022/08/12 04:14:11;;;;;;;3.05;2.25;;;17.90;65.00;;;17.18;51.25;97486.78;5052776;28;20755;-73
2022/08/12 04:16:38;;;;;;;3.22;2.45;;;17.90;65.10;;;17.20;51.26;97478.47;5052919;28;20420;-73
2022/08/12 04:19:06;;;;;;;6.93;2.65;;;17.90;65.10;;;17.13;51.45;97478.06;5035239;28;20401;-73
2022/08/12 04:21:35;;;;;;;4.70;2.65;;;17.80;65.40;;;17.04;51.85;97488.63;5052916;28;20481;-73
2022/08/12 04:24:03;;;;;;;4.90;2.40;;;17.60;65.90;;;16.91;52.30;97484.00;5052506;28;20398;-73
2022/08/12 04:26:29;;;;;;;5.93;2.80;;;17.60;66.20;;;16.92;52.25;97481.00;5052782;28;20420;-73
2022/08/12 04:28:57;;;;;;;5.35;3.00;;;17.60;66.30;;;16.87;52.14;97478.41;5052893;28;20436;-73
2022/08/12 04:31:30;;;;;;;3.83;2.20;;;17.50;66.50;;;16.80;52.63;97474.50;5052771;28;20402;-73
2022/08/12 04:33:57;;;;;;;6.25;2.50;;;17.50;66.70;;;16.87;52.57;97480.28;5052272;28;20436;-73
2022/08/12 04:36:24;;;;;;;7.63;2.33;;;17.50;66.80;;;16.79;52.84;97478.25;5052637;28;20437;-73
2022/08/12 04:38:51;;;;;;;3.33;2.58;;;17.50;66.80;;;16.81;53.00;97473.44;5052749;28;20400;-73
2022/08/12 04:41:18;;;;;;;3.90;2.63;;;17.60;67.00;;;16.86;52.91;97470.69;5052580;28;20493;-73
2022/08/12 04:43:44;;;;;;;7.50;2.92;;;17.60;67.10;;;16.84;53.03;97484.31;5052216;28;21248;-73
2022/08/12 04:46:11;;;;;;;2.75;2.30;;;17.40;67.40;;;16.74;53.32;97476.47;5052362;28;20511;-73
2022/08/12 04:48:37;;;;;;;8.68;2.88;;;17.50;67.80;;;16.79;53.59;97473.72;5052563;28;20759;-73
2022/08/12 04:51:03;;;;;;;6.43;3.00;;;17.40;67.90;;;16.79;53.80;97478.25;5034620;28;20417;-73
2022/08/12 04:53:31;;;;;;;4.32;2.60;;;17.50;67.90;;;16.77;53.96;97477.75;5034007;28;20409;-73
2022/08/12 04:55:59;;;;;;;6.28;2.50;;;17.40;68.20;;;16.76;53.98;97484.19;5034220;28;20397;-73
2022/08/12 04:58:25;;;;;;;4.07;2.50;;;17.50;68.30;;;16.82;54.18;97480.38;5052283;28;20401;-73
2022/08/12 05:00:51;;;;;;;5.75;2.40;;;17.50;68.50;;;16.81;54.13;97484.13;5052329;28;20401;-73
2022/08/12 05:03:17;;;;;;;3.38;2.20;;;17.50;68.60;;;16.80;54.31;97479.84;5051827;28;20497;-73
2022/08/12 05:05:44;;;;;;;2.78;2.40;;;17.50;68.60;;;16.82;54.13;97475.03;5051897;28;20486;-73
2022/08/12 05:08:14;;;;;;;3.17;2.40;;;17.50;68.60;;;16.88;54.04;97482.69;5052059;28;20413;-73
2022/08/12 05:10:45;;;;;;;5.60;2.60;;;17.60;68.50;;;16.93;54.12;97485.28;5052092;28;20390;-73
2022/08/12 05:13:15;;;;;;;5.68;3.08;;;17.60;68.50;;;16.98;53.99;97489.78;5051638;28;20451;-73
2022/08/12 05:15:42;;;;;;;2.97;2.38;;;17.70;68.50;;;17.07;54.02;97482.66;5051688;28;20875;-73
2022/08/12 05:18:08;;;;;;;3.00;2.22;;;17.80;68.40;;;17.18;53.74;97486.00;5051732;28;20394;-73
2022/08/12 05:20:34;;;;;;;3.05;2.40;;;17.90;68.20;;;17.28;53.45;97488.53;5051893;28;20397;-73
2022/08/12 05:23:07;;;;;;;3.08;2.40;;;18.10;67.90;;;17.38;53.52;97491.03;5051530;28;20397;-73
2022/08/12 05:25:33;;;;;;;3.80;2.30;;;18.10;67.70;;;17.46;53.68;97490.34;5051629;28;20397;-73
2022/08/12 05:28:01;;;;;;;7.55;2.83;;;18.20;67.80;;;17.53;53.70;97489.97;5051747;28;20409;-73
2022/08/12 05:30:29;;;;;;;3.00;2.10;;;18.30;67.80;;;17.59;53.56;97491.50;5051670;28;20401;-73
2022/08/12 05:32:56;;;;;;;2.92;2.40;;;18.30;67.70;;;17.64;53.30;97502.94;5051254;28;20444;-73
2022/08/12 05:35:23;;;;;;;3.20;2.13;;;18.40;67.60;;;17.71;53.11;97506.03;5051376;28;20398;-73
2022/08/12 05:38:54;;;;;;;4.53;2.55;;;18.50;67.50;;;17.78;52.67;97508.34;5051418;28;20477;-73
2022/08/12 05:40:35;;;;;;;4.05;2.28;;;18.50;67.10;;;17.90;52.31;97510.53;5051197;28;20413;-74
2022/08/12 05:43:02;;;;;;;5.40;2.67;;;18.60;66.60;;;17.98;51.98;97517.88;5050876;28;20440;-73
2022/08/12 05:45:28;;;;;;;4.93;2.33;;;18.70;66.40;;;18.05;51.03;97529.00;5051140;28;20416;-73
2022/08/12 05:47:55;;;;;;;3.30;2.42;;;18.70;65.90;;;18.11;51.09;97517.94;5051170;28;20406;-73
2022/08/12 05:50:21;;;;;;;6.22;2.75;;;18.80;65.40;;;18.18;50.45;97526.38;5051206;28;20487;-74
2022/08/12 05:52:47;;;;;;;4.05;2.50;;;18.90;64.80;;;18.24;50.49;97535.09;5050807;28;20397;-73
2022/08/12 05:55:13;;;;;;;3.75;2.30;;;19.00;64.60;;;18.30;50.46;97530.44;5050970;28;20405;-73
2022/08/12 05:57:39;;;;;;;3.50;2.33;;;19.00;64.60;;;18.35;50.67;97531.13;5051079;28;20406;-73
2022/08/12 06:00:08;;;;;;;3.90;2.65;;;19.10;64.80;;;18.39;49.86;97534.81;5050943;28;20938;-74
2022/08/12 06:02:34;;;;;;;5.63;2.60;;;19.10;64.10;;;18.44;49.87;97526.66;5050818;28;20416;-73
2022/08/12 06:05:01;;;;;;;3.85;2.60;;;19.20;63.80;;;18.50;49.67;97535.41;5050317;28;20408;-73
2022/08/12 06:07:27;;;;;;;5.03;2.63;;;19.20;63.70;;;18.54;49.59;97526.47;5050919;28;20460;-74
2022/08/12 06:09:53;;;;;;;4.63;2.50;;;19.20;63.70;;;18.60;49.28;97529.88;5050895;28;20794;-73
2022/08/12 06:12:22;;;;;;;4.63;2.40;;;19.30;63.60;;;18.66;49.46;97533.25;5050798;28;20892;-73
2022/08/12 06:14:48;;;;;;;3.53;2.60;;;19.30;63.60;;;18.71;49.36;97533.94;5050215;28;20859;-73
2022/08/12 06:17:16;;;;;;;6.78;2.70;;;19.40;63.40;;;18.76;49.23;97531.16;5050597;28;20948;-74
2022/08/12 06:19:42;;;;;;;4.30;2.60;;;19.50;63.20;;;18.81;48.87;97530.25;5050836;28;20909;-74
2022/08/12 06:22:10;;;;;;;3.47;2.40;;;19.50;62.90;;;18.84;48.71;97538.50;5050725;28;20397;-74
2022/08/12 06:24:36;;;;;;;5.35;2.38;;;19.50;62.70;;;18.87;48.45;97529.84;5050404;28;20401;-74
2022/08/12 06:27:02;;;;;;;6.18;2.40;;;19.50;62.50;;;18.90;48.64;97533.81;5050498;28;20413;-73
2022/08/12 06:29:28;;;;;;;3.45;2.70;;;19.60;62.40;;;18.92;48.27;97537.00;5050072;28;20830;-74
2022/08/12 06:31:54;;;;;;;8.07;2.72;;;19.60;62.40;;;18.93;48.33;97528.66;5050609;28;20397;-74
2022/08/12 06:34:21;;;;;;;3.77;2.50;;;19.60;62.30;;;18.98;48.01;97532.31;5050056;28;20460;-73
2022/08/12 06:36:47;;;;;;;4.03;2.50;;;19.60;61.80;;;19.00;47.74;97525.56;5050483;28;20459;-74
2022/08/12 06:39:14;;;;;;;2.95;2.10;;;19.60;61.60;;;19.04;47.42;97529.22;5050419;28;20398;-74
2022/08/12 06:44:25;;;;;;;6.47;2.50;;;19.70;61.10;;;19.11;47.10;97534.97;5049947;28;20763;-74
2022/08/12 06:46:51;;;;;;;4.50;2.65;;;19.70;61.00;;;19.15;47.34;97519.84;5050302;28;20418;-73
2022/08/12 06:49:17;;;;;;;4.65;2.35;;;19.80;61.10;;;19.19;47.22;97522.72;5032494;28;20417;-74
2022/08/12 06:51:44;;;;;;;3.45;2.28;;;19.80;61.00;;;19.23;47.18;97529.06;5050436;28;20405;-73
2022/08/12 06:54:10;;;;;;;4.15;2.17;;;19.90;61.00;;;19.26;46.84;97525.78;5031974;28;20486;-73
2022/08/12 06:56:37;;;;;;;2.95;2.30;;;19.90;60.70;;;19.30;46.60;97529.44;5050158;28;20441;-73
2022/08/12 06:59:03;;;;;;;3.50;2.30;;;20.00;60.50;;;19.34;46.70;97528.53;5032232;28;20809;-73
2022/08/12 07:01:30;;;;;;;3.90;2.37;;;20.00;60.50;;;19.39;46.75;97521.47;5050132;28;20406;-73
2022/08/12 07:03:56;;;;;;;3.55;2.20;;;20.00;60.50;;;19.43;46.75;97533.16;5049763;28;20413;-73
2022/08/12 07:06:24;;;;;;;3.37;2.43;;;20.10;60.60;;;19.47;46.72;97529.59;5050071;28;20425;-73
2022/08/12 07:08:51;;;;;;;4.22;2.33;;;20.00;60.40;;;19.52;46.46;97534.88;5050174;28;20485;-73
2022/08/12 07:11:17;;;;;;;5.45;2.45;;;20.20;60.30;;;19.56;46.14;97541.19;5050094;28;20496;-73
2022/08/12 07:13:49;;;;;;;9.13;2.85;;;20.20;60.00;;;19.60;45.77;97536.81;5049585;28;20402;-73
2022/08/12 07:16:17;;;;;;;3.63;2.20;;;20.20;59.60;;;19.67;45.65;97536.38;5072269;22;20526;-73
2022/08/12 07:18:46;;;;;;;5.50;2.25;;;20.30;59.50;;;19.71;45.81;97535.47;5070162;28;20960;-73
2022/08/12 07:21:13;;;;;;;4.68;2.60;;;20.30;59.50;;;19.78;45.67;97532.34;5068902;28;20399;-73
2022/08/12 07:23:42;;;;;;;9.55;2.47;;;20.40;59.50;;;19.84;45.74;97536.50;5069732;28;20400;-73
2022/08/12 07:26:15;;;;;;;4.65;2.22;;;20.40;59.40;;;19.92;45.31;97524.22;5069942;28;20420;-73
2022/08/12 07:28:43;;;;;;;6.03;2.47;;;20.50;59.00;;;20.01;44.93;97535.78;5069980;28;20489;-73
2022/08/12 07:31:11;;;;;;;3.42;2.25;;;20.60;58.70;;;20.07;44.38;97534.59;5070030;28;20396;-73
2022/08/12 07:33:39;;;;;;;3.72;2.08;;;20.70;58.30;;;20.13;44.02;97527.19;5069572;28;20399;-73
2022/08/12 07:36:09;;;;;;;5.35;2.50;;;20.70;57.90;;;20.20;43.19;97530.22;5069830;28;20482;-72
2022/08/12 07:38:38;;;;;;;3.47;2.10;;;20.80;57.00;;;20.27;43.18;97525.97;5069971;28;20391;-73
2022/08/12 07:41:09;;;;;;;3.38;2.22;;;20.90;57.00;;;20.33;43.05;97523.94;5070553;28;20518;-73
2022/08/12 07:43:41;;;;;;;3.22;2.05;;;20.90;56.80;;;20.39;42.62;97528.09;5073276;28;20407;-73
2022/08/12 07:46:11;;;;;;;3.20;1.90;;;21.00;56.50;;;20.49;42.39;97519.75;5055513;28;20465;-73
2022/08/12 07:48:41;;;;;;;7.28;2.47;;;21.10;56.40;;;20.54;42.01;97521.50;5073579;28;20907;-72
2022/08/12 07:51:08;;;;;;;11.32;3.10;;;21.10;55.80;;;20.60;41.86;97525.66;5073357;28;20521;-73
2022/08/12 07:53:35;;;;;;;13.70;3.67;;;21.20;55.60;;;20.67;42.22;97529.47;5072946;28;20411;-73
2022/08/12 07:56:03;;;;;;;5.20;2.37;;;21.30;56.00;;;20.75;42.00;97525.22;5073348;28;20395;-73
2022/08/12 07:58:30;;;;;;;5.53;2.10;;;21.30;55.90;;;20.83;41.61;97519.03;5073248;28;20407;-73
2022/08/12 08:00:58;;;;;;;5.35;2.47;;;21.40;55.60;;;20.91;41.62;97523.66;5073322;28;20427;-73
2022/08/12 08:03:24;;;;;;;3.03;2.00;;;21.50;55.50;;;21.01;41.74;97530.63;5072928;28;20400;-73
2022/08/12 08:05:51;;;;;;;5.78;2.50;;;21.60;55.50;;;21.09;40.34;97525.28;5073108;28;20748;-73
2022/08/12 08:08:22;;;;;;;2.72;1.90;;;21.70;54.10;;;21.21;40.01;97521.97;5073063;28;20422;-73
2022/08/12 08:10:49;;;;;;;3.45;2.30;;;21.70;54.00;;;21.29;39.71;97515.81;5073114;28;20423;-72
2022/08/12 08:13:16;;;;;;;2.83;2.05;;;21.90;53.60;;;21.39;40.00;97517.38;5072841;28;20761;-73
2022/08/12 08:15:44;;;;;;;3.22;2.10;;;21.90;53.70;;;21.46;39.37;97510.41;5072842;28;20423;-73
2022/08/12 08:18:15;;;;;;;6.20;2.58;;;22.00;53.10;;;21.54;39.24;97508.81;5073091;28;20392;-73
2022/08/12 08:20:44;;;;;;;6.07;2.38;;;22.10;53.70;;;21.68;39.56;97516.72;5073070;28;20917;-73
2022/08/12 08:23:14;;;;;;;6.13;2.33;;;22.20;53.40;;;21.79;39.41;97515.28;5072579;28;20391;-73
2022/08/12 08:25:40;;;;;;;7.00;2.20;;;22.30;53.30;;;21.90;39.33;97517.31;5072917;28;20419;-73
2022/08/12 08:28:10;;;;;;;6.68;2.25;;;22.40;53.00;;;22.03;37.12;97518.25;5072711;28;20408;-73
2022/08/12 08:30:38;;;;;;;2.60;1.80;;;22.60;51.20;;;22.19;36.99;97513.94;5072840;28;20403;-73
2022/08/12 08:33:08;;;;;;;5.40;2.00;;;22.70;50.70;;;22.31;37.17;97521.34;5072561;28;20874;-72
2022/08/12 08:35:36;;;;;;;2.70;2.10;;;22.80;51.00;;;22.40;37.36;97522.88;5072503;28;20465;-72
2022/08/12 08:38:13;;;;;;;7.70;1.80;;;22.90;51.10;;;22.50;37.71;97527.13;5072672;28;20560;-72
2022/08/12 08:43:30;;;;;;;4.68;2.55;;;23.10;51.10;;;22.70;37.02;97522.91;5072113;28;20454;-73
2022/08/12 08:45:56;;;;;;;6.85;2.20;;;23.20;50.70;;;22.80;37.15;97519.84;5072377;28;20769;-73
2022/08/12 08:48:23;;;;;;;3.13;2.20;;;23.30;50.80;;;22.90;35.75;97510.59;5072592;28;20970;-73
2022/08/12 08:50:51;;;;;;;5.35;2.00;;;23.40;49.80;;;22.97;36.04;97511.66;5072499;28;20439;-71
2022/08/12 08:53:17;;;;;;;5.60;1.73;;;23.50;49.80;;;23.07;36.26;97515.88;5071600;28;20453;-72
2022/08/12 08:55:44;;;;;;;2.55;1.60;;;23.60;49.90;;;23.17;36.04;97501.97;5070899;28;20485;-72
2022/08/12 08:58:11;;;;;;;3.22;2.00;;;23.70;49.60;;;23.25;34.39;97511.91;5072308;28;20400;-73
2022/08/12 09:00:38;;;;;;;3.40;1.63;;;23.70;48.10;;;23.36;34.19;97512.31;5072437;28;20721;-72
2022/08/12 09:03:05;;;;;;;2.75;1.73;;;23.80;47.70;;;23.44;34.12;97501.44;5071807;28;20403;-73
2022/08/12 09:05:32;;;;;;;2.90;1.92;;;24.00;47.60;;;23.53;34.46;97498.69;5070734;28;20760;-72
2022/08/12 09:08:01;;;;;;;4.75;1.85;;;24.00;47.90;;;23.64;33.82;97516.06;5072186;28;20772;-72
2022/08/12 09:10:28;;;;;;;1.77;1.40;;;24.10;47.30;;;23.76;33.65;97512.59;5072099;28;20398;-72
2022/08/12 09:15:40;;;;;;;3.45;1.60;;;24.30;46.50;;;23.88;32.78;97518.06;5071872;28;20450;-73
2022/08/12 09:18:10;;;;;;;4.23;1.70;;;24.40;46.10;;;23.99;32.66;97515.72;5070640;28;20905;-72
2022/08/12 09:20:38;;;;;;;4.85;1.95;;;24.50;45.90;;;24.07;32.49;97509.41;5071926;28;20414;-72
2022/08/12 09:23:10;;;;;;;2.30;1.45;;;24.60;45.60;;;24.19;32.47;97504.03;5071448;28;20865;-73
2022/08/12 09:25:37;;;;;;;5.03;1.70;;;24.60;45.70;;;24.27;31.81;97503.19;5071735;28;20515;-72
2022/08/12 09:28:04;;;;;;;4.20;1.67;;;24.70;45.40;;;24.36;31.85;97503.09;5071604;28;20422;-73
2022/08/12 09:30:30;;;;;;;2.90;1.70;;;24.80;45.00;;;24.45;31.50;97488.28;5071602;28;20404;-73
2022/08/12 09:32:57;;;;;;;3.45;1.83;;;24.90;44.60;;;24.52;31.56;97501.25;5070003;28;20449;-72
2022/08/12 09:35:26;;;;;;;3.78;1.67;;;25.00;44.90;;;24.62;31.50;97496.19;5053598;28;20935;-73
2022/08/12 09:37:54;;;;;;;3.45;1.90;;;25.10;44.50;;;24.69;30.41;97498.31;5071573;28;20765;-72
2022/08/12 09:40:23;;;;;;;4.07;1.90;;;25.20;43.30;;;24.76;29.89;97492.34;5071521;28;20434;-73
2022/08/12 09:45:35;;;;;;;2.47;1.67;;;25.30;43.00;;;24.96;30.00;97488.75;5071399;28;20394;-73
2022/08/12 09:48:07;;;;;;;3.80;1.60;;;25.40;42.90;;;25.05;29.71;97478.53;5071307;28;20416;-72
2022/08/12 09:50:34;;;;;;;2.22;1.42;;;25.50;42.70;;;25.14;29.49;97476.50;5071487;28;20435;-72
2022/08/12 09:53:06;;;;;;;2.80;1.58;;;25.60;42.40;;;25.30;29.65;97490.91;5070957;28;20550;-73
2022/08/12 09:55:34;;;;;;;2.70;1.60;;;25.70;42.70;;;25.54;29.14;97478.38;5071074;28;20880;-73
2022/08/12 09:58:00;;;;;;;3.60;1.70;;;26.00;41.90;;;25.77;27.30;97472.09;5071170;28;20400;-73
2022/08/12 10:00:28;;;;;;;2.67;1.60;;;26.40;39.70;;;26.12;27.31;97479.53;5070453;28;20434;-72
2022/08/12 10:03:03;;;;;;;3.28;1.83;;;26.70;40.10;;;26.49;26.97;97466.50;5070520;28;20399;-73
2022/08/12 10:05:33;;;;;;;2.60;1.70;;;27.20;39.40;;;26.93;26.62;97469.84;5070354;28;20396;-72
2022/08/12 10:07:59;;;;;;;5.35;1.60;;;27.70;39.00;;;27.28;26.37;97453.50;5071007;28;20633;-72
2022/08/12 10:10:27;;;;;;;2.70;1.50;;;28.10;38.40;;;27.61;26.54;97455.72;5071076;28;20449;-73
2022/08/12 10:15:44;;;;;;;3.40;1.60;;;28.70;38.20;;;28.15;25.57;97450.09;5070693;28;20776;-73
2022/08/12 10:18:10;;;;;;;7.07;1.75;;;28.90;37.60;;;28.34;25.65;97454.69;5070971;28;20453;-74
2022/08/12 10:20:37;;;;;;;3.70;2.05;;;28.90;37.60;;;28.21;25.05;97445.13;5070906;28;20931;-72
2022/08/12 10:23:04;;;;;;;4.25;1.52;;;28.90;36.80;;;28.18;25.03;97437.69;5069174;28;20400;-73
2022/08/12 10:31:06;;;;;;;3.08;1.70;;;28.30;38.40;;;27.72;25.86;97424.06;5023527;28;20419;-73
2022/08/12 10:33:33;;;;;;;2.70;1.57;;;28.10;38.10;;;27.66;26.49;97425.53;5070098;28;20411;-74
2022/08/12 10:36:00;;;;;;;4.20;1.50;;;28.00;38.50;;;27.63;26.03;97421.59;5070601;28;20400;-73
2022/08/12 10:38:27;;;;;;;8.98;1.80;;;28.00;38.60;;;27.73;26.05;97428.38;5070557;28;20400;-73
2022/08/12 10:43:41;;;;;;;7.10;2.28;;;28.30;38.60;;;28.11;25.69;97427.47;5069823;28;20395;-73
2022/08/12 10:46:08;;;;;;;3.10;1.70;;;28.60;38.20;;;28.39;25.56;97416.25;5070271;28;20395;-73
2022/08/12 10:48:34;;;;;;;3.20;1.90;;;28.80;38.20;;;28.58;25.45;97424.28;5070371;28;20391;-72
2022/08/12 10:51:02;;;;;;;4.43;2.00;;;29.10;37.60;;;28.74;25.16;97424.13;5070280;28;20632;-74
2022/08/12 10:53:29;;;;;;;3.55;1.30;;;29.20;37.60;;;28.82;25.03;97429.34;5069901;28;20399;-73
2022/08/12 10:55:55;;;;;;;2.60;1.60;;;29.30;37.60;;;28.80;25.17;97415.28;5070254;28;20452;-74
2022/08/12 10:58:21;;;;;;;4.78;1.73;;;29.30;37.30;;;28.80;25.12;97418.00;5070296;28;20395;-73
2022/08/12 11:00:48;;;;;;;2.28;1.55;;;29.30;37.80;;;28.80;25.20;97428.91;5070334;28;20453;-74
2022/08/12 11:03:14;;;;;;;5.18;2.00;;;29.30;37.50;;;28.64;23.92;97425.56;5051941;28;20904;-73
2022/08/12 11:05:40;;;;;;;1.80;1.60;;;29.10;35.60;;;28.55;24.10;97418.81;5070078;28;20418;-73
2022/08/12 11:08:07;;;;;;;1.90;1.40;;;29.00;36.60;;;28.34;24.76;97414.59;5070292;28;20407;-73
2022/08/12 11:10:32;;;;;;;3.08;1.50;;;28.80;36.90;;;27.98;24.34;97413.22;5070011;28;20881;-73
2022/08/12 11:12:59;;;;;;;6.10;1.70;;;28.40;36.30;;;27.70;24.92;97399.94;5069537;28;20418;-73
2022/08/12 11:15:25;;;;;;;2.10;1.40;;;28.10;37.10;;;27.66;25.39;97406.50;5071357;28;20402;-72
2022/08/12 11:17:52;;;;;;;2.47;1.50;;;28.00;37.80;;;27.71;25.64;97396.09;5074235;28;20403;-73
2022/08/12 11:20:18;;;;;;;3.70;1.57;;;28.10;37.90;;;27.82;25.24;97395.50;5074371;28;20482;-72
2022/08/12 11:22:55;;;;;;;5.55;1.65;;;28.10;37.60;;;28.01;25.60;97406.28;5073914;28;20477;-73
2022/08/12 11:25:21;;;;;;;4.22;1.85;;;28.30;37.90;;;28.17;25.27;97398.03;5073772;28;20441;-73
2022/08/12 11:27:47;;;;;;;2.17;1.38;;;28.50;37.90;;;28.33;25.02;97394.00;5073901;28;20492;-72
2022/08/12 11:30:13;;;;;;;3.28;1.60;;;28.60;37.60;;;28.34;24.65;97400.22;5074055;28;20400;-73
2022/08/12 11:32:39;;;;;;;3.65;1.40;;;28.60;36.70;;;28.17;24.20;97393.38;5073946;28;20399;-73
2022/08/12 11:35:08;;;;;;;2.57;1.40;;;28.50;36.50;;;28.18;24.28;97391.44;5073759;28;20495;-73
2022/08/12 11:37:36;;;;;;;3.10;1.67;;;28.50;36.60;;;28.15;24.35;97378.50;5073778;28;20847;-73
2022/08/12 11:40:03;;;;;;;4.68;1.52;;;28.50;36.70;;;28.20;24.11;97378.22;5074036;28;20900;-73
2022/08/12 11:42:29;;;;;;;2.58;1.70;;;28.50;36.70;;;28.34;24.72;97392.81;5073877;28;20794;-73
2022/08/12 11:44:54;;;;;;;3.17;1.70;;;28.60;37.00;;;28.33;23.15;97385.03;5073333;28;20540;-73
2022/08/12 11:47:20;;;;;;;5.00;1.55;;;28.60;35.10;;;28.18;23.35;97381.31;5073587;28;20415;-71
2022/08/12 11:49:46;;;;;;;2.90;1.50;;;28.40;35.10;;;28.30;23.78;97380.31;5073703;28;20533;-72
2022/08/12 11:52:14;;;;;;;1.98;1.45;;;28.60;36.20;;;28.41;23.81;97376.63;5073716;28;20465;-73
2022/08/12 11:54:39;;;;;;;3.17;1.60;;;28.70;36.00;;;28.52;23.39;97374.03;5073174;28;20490;-73
2022/08/12 11:57:05;;;;;;;2.25;1.52;;;28.80;35.30;;;28.66;23.36;97363.31;5073466;28;20396;-73
2022/08/12 11:59:32;;;;;;;2.00;1.50;;;28.90;35.70;;;28.74;23.05;97378.59;5073553;28;20410;-73
2022/08/12 12:01:58;;;;;;;1.55;1.45;;;29.10;35.30;;;28.92;23.63;97373.41;5073468;28;20865;-72
2022/08/12 12:04:24;;;;;;;3.35;1.50;;;29.20;35.70;;;28.97;22.88;97364.13;5072802;28;20414;-70
2022/08/12 12:06:50;;;;;;;2.38;1.40;;;29.20;35.20;;;29.02;22.83;97363.81;5073116;28;20477;-73
2022/08/12 12:09:17;;;;;;;2.08;1.23;;;29.30;35.20;;;29.08;22.75;97367.75;5073462;28;20404;-73
2022/08/12 12:11:43;;;;;;;3.08;1.48;;;29.30;35.10;;;29.08;22.37;97371.28;5073255;28;20396;-73
2022/08/12 12:14:09;;;;;;;3.93;1.30;;;29.30;34.40;;;29.20;22.20;97367.50;5072775;28;20418;-73